Time;durP1;ratioP1;P1;durP2;ratioP2;P2;SDS_P1;SDS_P2;PMS_P1;PMS_P2;Temp;Humidity;BMP_temperature;BMP_pressure;BME280_temperature;BME280_humidity;BME280_pressure;Samples;Min_cycle;Max_cycle;Signal;HPM_P1;HPM_P2
2022/07/29 00:02:11;;;;;;;0.63;0.20;;;12.60;99.90;;;;;;5012856;28;20169;-81
2022/07/29 00:04:37;;;;;;;0.50;0.20;;;12.60;99.90;;;;;;5012732;28;20173;-81
2022/07/29 00:07:03;;;;;;;1.17;0.20;;;12.50;99.90;;;;;;5012749;28;20308;-81
2022/07/29 00:09:29;;;;;;;0.80;0.20;;;12.40;99.90;;;;;;5012666;28;20177;-81
2022/07/29 00:11:58;;;;;;;3.70;0.40;;;12.40;99.90;;;;;;5012405;28;20416;-81
2022/07/29 00:14:23;;;;;;;0.73;0.23;;;12.30;99.90;;;;;;5012682;28;20202;-80
2022/07/29 00:16:49;;;;;;;1.73;0.20;;;12.20;99.90;;;;;;5012607;28;20419;-80
2022/07/29 00:19:14;;;;;;;0.67;0.20;;;12.20;99.90;;;;;;5012587;28;20532;-81
2022/07/29 00:21:40;;;;;;;1.10;0.30;;;12.20;99.90;;;;;;5012483;28;20175;-81
2022/07/29 00:24:05;;;;;;;1.37;0.30;;;12.10;99.90;;;;;;5012646;28;20182;-81
2022/07/29 00:26:32;;;;;;;0.70;0.20;;;12.00;99.90;;;;;;5012166;28;20212;-80
2022/07/29 00:28:59;;;;;;;1.47;0.30;;;11.90;99.90;;;;;;5012475;28;20261;-81
2022/07/29 00:31:24;;;;;;;0.60;0.30;;;11.90;99.90;;;;;;5012417;28;20447;-81
2022/07/29 00:33:50;;;;;;;1.87;0.40;;;11.90;99.90;;;;;;5012202;28;20979;-80
2022/07/29 00:36:15;;;;;;;0.60;0.23;;;11.90;99.90;;;;;;5012323;28;20243;-80
2022/07/29 00:38:44;;;;;;;1.00;0.30;;;11.80;99.90;;;;;;5012147;28;20178;-80
2022/07/29 00:41:09;;;;;;;1.37;0.30;;;11.80;99.90;;;;;;5011819;28;20252;-80
2022/07/29 00:43:35;;;;;;;0.60;0.20;;;11.80;99.90;;;;;;5012192;28;20509;-81
2022/07/29 00:46:00;;;;;;;0.57;0.20;;;11.80;99.90;;;;;;5012080;28;20184;-79
2022/07/29 00:48:26;;;;;;;0.93;0.50;;;11.80;99.90;;;;;;4994444;28;20175;-79
2022/07/29 00:50:51;;;;;;;0.30;0.20;;;11.80;99.90;;;;;;4994308;28;20222;-80
2022/07/29 00:53:17;;;;;;;0.70;0.30;;;11.90;99.90;;;;;;4994419;28;20248;-79
2022/07/29 00:55:43;;;;;;;2.57;0.40;;;11.90;99.90;;;;;;5011614;28;20575;-81
2022/07/29 00:58:08;;;;;;;0.93;0.30;;;12.10;99.90;;;;;;5011886;28;20173;-80
2022/07/29 01:00:34;;;;;;;1.00;0.30;;;12.10;99.90;;;;;;5011941;28;20177;-80
2022/07/29 01:03:00;;;;;;;1.27;0.27;;;12.00;99.90;;;;;;5011995;28;20562;-79
2022/07/29 01:05:27;;;;;;;1.00;0.30;;;12.00;99.90;;;;;;5011893;28;20228;-81
2022/07/29 01:07:54;;;;;;;0.97;0.20;;;12.10;99.90;;;;;;5011832;28;20422;-81
2022/07/29 01:10:21;;;;;;;1.37;0.67;;;12.00;99.90;;;;;;5011343;28;20530;-80
2022/07/29 01:12:49;;;;;;;0.70;0.30;;;12.00;99.90;;;;;;5011778;28;20418;-81
2022/07/29 01:15:15;;;;;;;0.97;0.23;;;12.00;99.90;;;;;;5011688;28;20826;-80
2022/07/29 01:17:53;;;;;;;0.70;0.33;;;12.00;99.90;;;;;;5011690;28;20506;-81
2022/07/29 01:20:37;;;;;;;1.90;0.87;;;12.00;99.90;;;;;;5009905;28;20187;-80
2022/07/29 01:23:35;;;;;;;1.30;0.33;;;12.10;99.90;;;;;;5010525;28;20448;-79
2022/07/29 01:26:33;;;;;;;1.93;0.33;;;12.10;99.90;;;;;;5009789;28;20531;-79
2022/07/29 01:29:23;;;;;;;1.00;0.40;;;12.10;99.90;;;;;;5011697;28;20416;-79
2022/07/29 01:31:55;;;;;;;0.70;0.20;;;12.10;99.90;;;;;;4994038;28;20947;-79
2022/07/29 01:34:26;;;;;;;1.30;0.40;;;12.10;99.90;;;;;;4995277;28;20490;-80
2022/07/29 01:37:15;;;;;;;2.40;0.40;;;12.10;99.90;;;;;;5015632;28;20416;-79
2022/07/29 01:39:43;;;;;;;2.20;0.40;;;12.10;99.90;;;;;;5013974;28;20413;-79
2022/07/29 01:42:26;;;;;;;1.40;0.37;;;12.00;99.90;;;;;;5015079;28;20917;-80
2022/07/29 01:45:19;;;;;;;0.73;0.40;;;12.10;99.90;;;;;;5015475;28;20464;-79
2022/07/29 01:48:10;;;;;;;1.70;0.30;;;12.00;99.90;;;;;;5014452;28;20515;-79
2022/07/29 01:50:45;;;;;;;0.90;0.33;;;12.00;99.90;;;;;;5015178;28;20463;-80
2022/07/29 01:53:14;;;;;;;0.80;0.30;;;12.10;99.90;;;;;;5015188;28;20505;-80
2022/07/29 01:55:43;;;;;;;1.60;0.60;;;12.10;99.90;;;;;;5014788;28;20417;-80
2022/07/29 01:58:11;;;;;;;1.67;0.80;;;12.10;99.90;;;;;;5015055;28;20447;-80
2022/07/29 02:00:38;;;;;;;0.70;0.20;;;12.20;99.90;;;;;;4997617;28;20415;-80
2022/07/29 02:03:09;;;;;;;0.97;0.30;;;12.20;99.90;;;;;;5015102;28;20952;-80
2022/07/29 02:05:37;;;;;;;1.30;0.80;;;12.20;99.90;;;;;;5015125;28;20466;-80
2022/07/29 02:08:04;;;;;;;1.33;0.40;;;12.20;99.90;;;;;;5015030;28;20434;-80
2022/07/29 02:10:33;;;;;;;1.10;0.43;;;12.30;99.90;;;;;;5014564;28;20425;-80
2022/07/29 02:12:59;;;;;;;0.70;0.30;;;12.30;99.90;;;;;;4997321;28;20527;-80
2022/07/29 02:15:28;;;;;;;0.83;0.47;;;12.20;99.90;;;;;;5014696;28;20467;-80
2022/07/29 02:18:01;;;;;;;1.07;0.30;;;12.30;99.90;;;;;;4997271;28;20427;-80
2022/07/29 02:20:28;;;;;;;0.57;0.20;;;12.30;99.90;;;;;;5015859;28;20768;-80
2022/07/29 02:22:55;;;;;;;1.90;0.40;;;12.40;99.90;;;;;;5016069;28;20411;-81
2022/07/29 02:25:22;;;;;;;1.03;0.50;;;12.40;99.90;;;;;;5015657;28;20421;-81
2022/07/29 02:27:50;;;;;;;2.77;1.00;;;12.40;99.90;;;;;;5015951;28;20411;-80
2022/07/29 02:30:17;;;;;;;1.83;0.40;;;12.50;99.90;;;;;;5015860;28;20407;-81
2022/07/29 02:32:45;;;;;;;1.20;0.60;;;12.40;99.90;;;;;;5015881;28;20420;-80
2022/07/29 02:35:13;;;;;;;3.70;0.87;;;12.40;99.90;;;;;;5015571;28;20470;-81
2022/07/29 02:37:40;;;;;;;0.60;0.30;;;12.40;99.90;;;;;;5014113;28;20419;-80
2022/07/29 02:40:10;;;;;;;1.03;0.50;;;12.50;99.90;;;;;;5013736;28;20512;-81
2022/07/29 02:42:38;;;;;;;0.67;0.40;;;12.40;99.90;;;;;;5014155;28;20845;-80
2022/07/29 02:45:05;;;;;;;1.43;0.47;;;12.40;99.90;;;;;;5014785;28;20416;-80
2022/07/29 02:47:43;;;;;;;0.70;0.20;;;12.40;99.90;;;;;;5014131;28;20407;-80
2022/07/29 02:50:17;;;;;;;0.60;0.30;;;12.40;99.90;;;;;;5015385;28;20511;-80
2022/07/29 02:53:14;;;;;;;1.20;0.50;;;12.50;99.90;;;;;;4997946;28;20514;-79
2022/07/29 02:55:55;;;;;;;3.30;0.53;;;12.40;99.90;;;;;;5014236;28;20442;-79
2022/07/29 02:58:37;;;;;;;5.30;0.63;;;12.40;99.90;;;;;;4997988;28;20518;-79
2022/07/29 03:01:10;;;;;;;1.20;0.33;;;12.50;99.90;;;;;;5015317;28;20431;-80
2022/07/29 03:03:37;;;;;;;1.70;0.70;;;12.40;99.90;;;;;;5015384;28;20428;-80
2022/07/29 03:06:04;;;;;;;1.57;0.30;;;12.40;99.90;;;;;;5015264;28;20414;-80
2022/07/29 03:08:32;;;;;;;1.50;0.30;;;12.50;99.90;;;;;;5015251;28;20416;-79
2022/07/29 03:10:58;;;;;;;3.00;0.80;;;12.50;99.90;;;;;;5014828;28;20421;-79
2022/07/29 03:13:25;;;;;;;0.87;0.30;;;12.40;99.90;;;;;;5015016;28;20428;-79
2022/07/29 03:15:51;;;;;;;1.97;0.50;;;12.50;99.90;;;;;;5015082;28;20425;-80
2022/07/29 03:18:16;;;;;;;0.60;0.20;;;12.50;99.90;;;;;;5014984;28;20977;-79
2022/07/29 03:20:42;;;;;;;1.03;0.20;;;12.50;99.90;;;;;;4997491;28;20181;-79
2022/07/29 03:23:08;;;;;;;1.63;0.97;;;12.50;99.90;;;;;;5014922;28;20168;-79
2022/07/29 03:25:34;;;;;;;0.80;0.40;;;12.50;99.90;;;;;;4997000;28;20659;-80
2022/07/29 03:28:00;;;;;;;0.60;0.27;;;12.50;99.90;;;;;;5014750;28;20420;-80
2022/07/29 03:30:25;;;;;;;1.70;0.57;;;12.50;99.90;;;;;;5014792;28;20479;-80
2022/07/29 03:32:52;;;;;;;1.07;0.40;;;12.60;99.90;;;;;;5015014;28;20242;-80
2022/07/29 03:35:17;;;;;;;0.77;0.30;;;12.60;99.90;;;;;;5014642;28;20213;-79
2022/07/29 03:37:44;;;;;;;1.30;0.70;;;12.60;99.90;;;;;;4997138;28;20932;-79
2022/07/29 03:40:13;;;;;;;2.80;1.10;;;12.60;99.90;;;;;;5014261;28;20183;-80
2022/07/29 03:42:42;;;;;;;0.90;0.40;;;12.80;99.90;;;;;;5014591;28;20843;-80
2022/07/29 03:45:18;;;;;;;1.37;0.40;;;12.70;99.90;;;;;;5014615;28;20844;-80
2022/07/29 03:47:48;;;;;;;1.00;0.30;;;12.70;99.90;;;;;;4996901;28;20465;-79
2022/07/29 03:50:15;;;;;;;1.57;0.30;;;12.70;99.90;;;;;;5014333;28;20888;-81
2022/07/29 03:52:40;;;;;;;2.53;0.50;;;12.80;99.90;;;;;;5014386;28;20408;-79
2022/07/29 03:55:07;;;;;;;1.27;0.50;;;12.80;99.90;;;;;;5013989;28;20480;-79
2022/07/29 03:57:34;;;;;;;1.50;0.40;;;12.90;99.90;;;;;;5013837;28;20175;-80
2022/07/29 04:00:02;;;;;;;1.00;0.43;;;13.00;99.90;;;;;;5014255;28;20515;-79
2022/07/29 04:02:28;;;;;;;1.50;0.53;;;13.10;99.90;;;;;;5014185;28;20849;-80
2022/07/29 04:04:53;;;;;;;1.87;0.90;;;13.10;99.90;;;;;;5014204;28;20425;-80
2022/07/29 04:07:19;;;;;;;2.40;0.53;;;13.20;99.90;;;;;;5014236;28;20166;-80
2022/07/29 04:09:44;;;;;;;1.43;0.63;;;13.30;99.90;;;;;;5013821;28;20201;-81
2022/07/29 04:12:10;;;;;;;1.80;0.90;;;13.30;99.90;;;;;;5014095;28;20506;-81
2022/07/29 04:14:36;;;;;;;1.20;0.30;;;13.30;99.90;;;;;;5013888;28;20308;-80
2022/07/29 04:17:03;;;;;;;0.70;0.30;;;13.30;99.90;;;;;;5013947;28;20277;-80
2022/07/29 04:19:29;;;;;;;2.10;0.50;;;13.30;99.90;;;;;;5013938;28;20185;-79
2022/07/29 04:21:54;;;;;;;1.47;0.20;;;13.50;99.90;;;;;;5013925;28;20906;-80
2022/07/29 04:24:20;;;;;;;1.07;0.30;;;13.50;99.90;;;;;;5013904;28;20194;-80
2022/07/29 04:26:46;;;;;;;1.57;0.27;;;13.50;99.90;;;;;;5013498;28;20174;-80
2022/07/29 04:29:13;;;;;;;1.67;0.40;;;13.50;99.90;;;;;;5013739;28;20212;-80
2022/07/29 04:31:39;;;;;;;1.20;0.20;;;13.60;99.90;;;;;;5013742;28;20425;-80
2022/07/29 04:34:05;;;;;;;0.90;0.60;;;13.60;99.90;;;;;;5013578;28;20491;-81
2022/07/29 04:36:31;;;;;;;1.43;0.47;;;13.70;99.90;;;;;;5013657;28;20206;-81
2022/07/29 04:38:57;;;;;;;0.70;0.40;;;13.70;99.90;;;;;;5013684;28;20420;-80
2022/07/29 04:41:23;;;;;;;0.70;0.30;;;13.70;99.90;;;;;;5013293;28;20660;-80
2022/07/29 04:43:48;;;;;;;0.90;0.40;;;13.80;99.90;;;;;;5013551;28;20448;-80
2022/07/29 04:46:14;;;;;;;0.73;0.40;;;13.90;99.90;;;;;;5013532;28;20185;-80
2022/07/29 04:48:39;;;;;;;1.00;0.20;;;14.00;99.90;;;;;;5013463;28;20206;-80
2022/07/29 04:51:05;;;;;;;1.60;0.63;;;14.10;14.60;;;;;;5013411;28;20240;-80
2022/07/29 04:53:30;;;;;;;1.20;0.50;;;14.20;1.00;;;;;;5013388;28;20178;-80
2022/07/29 04:55:56;;;;;;;0.77;0.33;;;14.30;1.00;;;;;;5013023;28;20182;-80
2022/07/29 04:58:23;;;;;;;0.93;0.37;;;14.40;1.00;;;;;;5013365;28;20251;-80
2022/07/29 05:00:49;;;;;;;1.00;0.40;;;14.50;1.00;;;;;;5013284;28;20171;-81
2022/07/29 05:03:14;;;;;;;2.07;0.90;;;14.60;1.00;;;;;;4995675;28;20424;-81
2022/07/29 05:05:40;;;;;;;1.00;0.20;;;14.60;1.00;;;;;;5013236;28;20674;-80
2022/07/29 05:08:06;;;;;;;1.23;0.43;;;14.70;1.00;;;;;;5012948;28;20239;-81
2022/07/29 05:10:32;;;;;;;1.00;0.33;;;14.70;1.00;;;;;;5012464;28;20236;-81
2022/07/29 05:12:57;;;;;;;1.80;0.53;;;14.80;1.00;;;;;;5013017;28;20179;-81
2022/07/29 05:15:23;;;;;;;1.47;0.40;;;14.80;1.00;;;;;;5012975;28;20520;-80
2022/07/29 05:17:48;;;;;;;1.77;0.50;;;14.80;1.00;;;;;;5013205;28;20202;-81
2022/07/29 05:20:14;;;;;;;1.80;0.87;;;14.90;1.00;;;;;;5013176;28;20178;-81
2022/07/29 05:22:40;;;;;;;2.87;0.67;;;15.00;1.00;;;;;;5013171;28;20175;-81
2022/07/29 05:25:06;;;;;;;0.60;0.23;;;14.90;1.00;;;;;;5012798;28;20180;-81
2022/07/29 05:27:31;;;;;;;0.83;0.40;;;15.00;1.00;;;;;;5013069;28;20182;-81
2022/07/29 05:29:57;;;;;;;0.93;0.33;;;15.00;1.00;;;;;;5013004;28;20669;-81
2022/07/29 05:32:22;;;;;;;1.13;0.33;;;15.00;4.50;;;;;;5013029;28;20182;-81
2022/07/29 05:34:47;;;;;;;3.10;0.40;;;15.10;1.00;;;;;;5012893;28;20220;-81
2022/07/29 05:37:13;;;;;;;1.43;0.43;;;15.20;1.00;;;;;;5012989;28;20259;-81
2022/07/29 05:39:39;;;;;;;2.73;0.43;;;15.20;1.00;;;;;;5012623;28;20574;-80
2022/07/29 05:42:09;;;;;;;2.37;0.40;;;15.30;1.00;;;;;;5012945;28;20175;-80
2022/07/29 05:44:39;;;;;;;2.07;0.60;;;15.40;1.00;;;;;;5012748;28;20430;-81
2022/07/29 05:47:04;;;;;;;1.10;0.40;;;15.60;1.00;;;;;;5012925;28;20477;-81
2022/07/29 05:49:30;;;;;;;1.00;0.30;;;15.80;1.00;;;;;;5012678;28;20569;-81
2022/07/29 05:51:55;;;;;;;1.43;0.50;;;16.00;1.00;;;;;;5012853;28;20185;-80
2022/07/29 05:54:20;;;;;;;1.47;0.20;;;16.10;1.00;;;;;;5012474;28;20216;-80
2022/07/29 05:56:46;;;;;;;1.93;0.23;;;16.20;1.00;;;;;;5012859;28;20646;-81
2022/07/29 05:59:11;;;;;;;4.00;0.47;;;16.40;39.10;;;;;;5012722;28;20191;-81
2022/07/29 06:01:39;;;;;;;0.87;0.20;;;16.80;1.00;;;;;;5012790;28;20185;-81
2022/07/29 06:04:05;;;;;;;1.80;0.30;;;17.60;1.00;;;;;;5012742;28;20174;-81
2022/07/29 06:06:31;;;;;;;0.93;0.53;;;17.90;99.90;;;;;;5012763;28;20452;-82
2022/07/29 06:08:56;;;;;;;1.67;0.60;;;17.60;99.90;;;;;;4995221;28;20485;-81
2022/07/29 06:11:22;;;;;;;1.07;0.50;;;17.50;1.00;;;;;;5012348;28;20188;-81
2022/07/29 06:13:47;;;;;;;1.87;0.40;;;17.40;99.90;;;;;;5012528;28;20645;-82
2022/07/29 06:16:13;;;;;;;0.83;0.40;;;17.50;84.90;;;;;;5012631;28;20186;-82
2022/07/29 06:18:38;;;;;;;2.00;0.33;;;17.30;1.00;;;;;;5012787;28;20211;-82
2022/07/29 06:21:08;;;;;;;1.63;0.67;;;17.10;1.00;;;;;;5014900;28;20190;-82
2022/07/29 06:23:34;;;;;;;1.33;0.10;;;17.00;99.90;;;;;;5016111;28;20165;-81
2022/07/29 06:25:59;;;;;;;1.87;0.40;;;17.10;1.00;;;;;;5015688;28;20420;-81
2022/07/29 06:28:25;;;;;;;0.60;0.20;;;17.10;99.90;;;;;;5015938;28;20412;-81
2022/07/29 06:30:51;;;;;;;2.00;0.23;;;17.60;1.00;;;;;;5015963;28;20184;-82
2022/07/29 06:33:18;;;;;;;1.87;0.40;;;17.90;99.90;;;;;;5015853;28;20467;-82
2022/07/29 06:35:45;;;;;;;0.77;0.27;;;18.20;99.90;;;;;;5015790;28;20216;-82
2022/07/29 06:38:11;;;;;;;0.90;0.33;;;18.40;99.90;;;;;;5015806;28;20429;-81
2022/07/29 06:43:20;;;;;;;1.73;0.50;;;18.30;57.90;;;;;;5016068;28;20235;-81
2022/07/29 06:45:46;;;;;;;1.30;0.40;;;18.20;99.90;;;;;;5015694;28;20421;-81
2022/07/29 06:48:11;;;;;;;0.90;0.57;;;18.10;99.90;;;;;;5015624;28;20181;-81
2022/07/29 06:50:37;;;;;;;1.57;0.83;;;18.20;1.00;;;;;;5015443;28;20220;-82
2022/07/29 06:53:03;;;;;;;0.80;0.43;;;18.40;99.90;;;;;;5015493;28;20232;-82
2022/07/29 06:55:28;;;;;;;0.97;0.30;;;18.90;99.90;;;;;;5015094;28;20213;-82
2022/07/29 06:57:54;;;;;;;3.70;0.70;;;19.20;99.90;;;;;;5015390;28;20506;-81
2022/07/29 07:00:19;;;;;;;1.37;0.47;;;19.90;1.00;;;;;;5015441;28;20168;-82
2022/07/29 07:02:45;;;;;;;1.50;0.50;;;19.70;99.90;;;;;;5015408;28;20190;-82
2022/07/29 07:05:10;;;;;;;1.10;0.50;;;19.40;24.70;;;;;;4997763;28;20234;-81
2022/07/29 07:07:36;;;;;;;0.50;0.30;;;19.20;1.00;;;;;;5015338;28;20215;-82
2022/07/29 07:10:01;;;;;;;1.70;0.47;;;19.10;1.00;;;;;;5014882;28;20175;-82
2022/07/29 07:12:27;;;;;;;1.13;0.30;;;19.20;91.20;;;;;;5015197;28;20655;-81
2022/07/29 07:14:52;;;;;;;1.47;0.73;;;19.00;99.90;;;;;;5015002;28;20218;-82
2022/07/29 07:17:18;;;;;;;1.07;0.40;;;18.80;1.00;;;;;;5015112;28;20211;-82
2022/07/29 07:19:44;;;;;;;1.33;0.67;;;18.70;1.00;;;;;;5015008;28;20246;-82
2022/07/29 07:22:10;;;;;;;1.07;0.50;;;18.40;1.00;;;;;;5014992;28;20172;-81
2022/07/29 07:24:35;;;;;;;1.33;0.30;;;18.80;1.00;;;;;;5014518;28;20892;-80
2022/07/29 07:27:01;;;;;;;0.73;0.20;;;18.90;93.30;;;;;;4997498;28;20262;-82
2022/07/29 07:29:27;;;;;;;1.77;0.30;;;18.80;99.90;;;;;;5014952;28;20633;-82
2022/07/29 07:31:52;;;;;;;1.83;0.37;;;18.90;1.00;;;;;;5014160;28;20230;-81
2022/07/29 07:34:18;;;;;;;1.87;0.50;;;19.20;1.00;;;;;;5014681;28;20215;-81
2022/07/29 07:36:43;;;;;;;1.53;0.23;;;19.20;1.00;;;;;;5014652;28;20656;-81
2022/07/29 07:39:09;;;;;;;1.37;0.40;;;19.30;1.00;;;;;;5014383;28;20182;-81
2022/07/29 07:41:34;;;;;;;1.03;0.53;;;19.40;99.90;;;;;;4997078;28;20206;-81
2022/07/29 07:44:00;;;;;;;2.10;0.20;;;19.80;99.90;;;;;;5014654;28;20180;-81
2022/07/29 07:46:25;;;;;;;1.50;0.43;;;20.20;99.90;;;;;;5014508;28;20232;-81
2022/07/29 07:48:52;;;;;;;0.60;0.23;;;20.80;1.00;;;;;;5014359;28;21246;-81
2022/07/29 07:51:17;;;;;;;1.67;0.57;;;21.80;99.90;;;;;;5014323;28;20230;-79
2022/07/29 07:53:44;;;;;;;1.00;0.30;;;23.20;99.90;;;;;;5014229;28;20792;-80
2022/07/29 07:56:10;;;;;;;0.80;0.50;;;23.90;99.90;;;;;;5014136;28;20167;-82
2022/07/29 07:58:36;;;;;;;1.57;0.43;;;24.70;99.60;;;;;;5014371;28;20422;-83
2022/07/29 08:01:01;;;;;;;1.00;0.20;;;24.20;99.90;;;;;;5014254;28;20205;-82
2022/07/29 08:03:27;;;;;;;1.57;0.30;;;23.80;99.90;;;;;;5014275;28;20178;-80
2022/07/29 08:05:54;;;;;;;0.90;0.50;;;24.00;99.90;;;;;;5014169;28;20252;-81
2022/07/29 08:08:19;;;;;;;0.97;0.30;;;23.60;99.90;;;;;;4996587;28;20171;-82
2022/07/29 08:10:58;;;;;;;2.07;0.77;;;23.30;99.90;;;;;;5013751;28;20945;-79
2022/07/29 08:13:27;;;;;;;2.23;0.70;;;23.80;99.90;;;;;;5014051;28;20182;-79
2022/07/29 08:15:57;;;;;;;1.23;0.37;;;24.60;97.80;;;;;;5013917;28;20445;-80
2022/07/29 08:18:24;;;;;;;1.00;0.30;;;24.90;97.70;;;;;;5014012;28;20496;-79
2022/07/29 08:20:49;;;;;;;0.73;0.30;;;25.30;57.10;;;;;;5013973;28;20422;-80
2022/07/29 08:23:15;;;;;;;0.87;0.57;;;25.20;57.00;;;;;;5013883;28;20468;-80
2022/07/29 08:25:41;;;;;;;1.00;0.50;;;25.00;90.80;;;;;;5013525;28;20173;-79
2022/07/29 08:28:07;;;;;;;1.57;0.70;;;24.90;53.80;;;;;;5013773;28;20710;-79
2022/07/29 08:30:33;;;;;;;0.67;0.30;;;25.00;51.30;;;;;;5013750;28;20445;-79
2022/07/29 08:32:59;;;;;;;1.27;0.50;;;26.10;37.20;;;;;;5013691;28;20163;-80
2022/07/29 08:35:25;;;;;;;1.03;0.50;;;26.40;25.90;;;;;;5013586;28;20488;-79
2022/07/29 08:37:52;;;;;;;0.80;0.40;;;27.20;27.30;;;;;;5013690;28;20177;-80
2022/07/29 08:40:20;;;;;;;0.73;0.30;;;28.10;22.70;;;;;;5013279;28;20414;-81
2022/07/29 08:42:45;;;;;;;1.33;0.60;;;26.90;1.00;;;;;;5013429;28;20418;-80
2022/07/29 08:45:11;;;;;;;0.53;0.30;;;26.00;1.00;;;;;;5013505;28;20418;-80
2022/07/29 08:47:42;;;;;;;1.13;0.50;;;26.00;19.70;;;;;;5013523;28;20171;-81
2022/07/29 08:50:09;;;;;;;2.37;0.30;;;26.20;1.00;;;;;;5013405;28;20457;-80
2022/07/29 08:52:36;;;;;;;0.90;0.30;;;25.90;1.00;;;;;;5013411;28;20406;-81
2022/07/29 08:55:03;;;;;;;1.60;0.30;;;25.80;11.70;;;;;;5012945;28;20473;-80
2022/07/29 08:57:29;;;;;;;1.50;0.40;;;25.70;6.20;;;;;;5013334;28;20508;-80
2022/07/29 08:59:57;;;;;;;1.20;0.60;;;25.30;9.90;;;;;;5013340;28;20526;-81
2022/07/29 09:02:25;;;;;;;0.60;0.30;;;25.20;12.20;;;;;;5013297;28;20505;-80
2022/07/29 09:04:51;;;;;;;0.90;0.40;;;25.40;13.60;;;;;;5013256;28;20426;-81
2022/07/29 09:07:18;;;;;;;3.00;0.73;;;27.70;6.40;;;;;;5013182;28;20506;-80
2022/07/29 09:09:43;;;;;;;2.50;0.70;;;29.30;1.00;;;;;;5012800;28;20643;-81
2022/07/29 09:12:11;;;;;;;1.40;0.60;;;28.40;1.00;;;;;;5013195;28;20484;-81
2022/07/29 09:14:40;;;;;;;0.80;0.40;;;26.50;1.00;;;;;;5013138;28;20223;-80
2022/07/29 09:17:06;;;;;;;0.77;0.43;;;25.20;1.00;;;;;;5013177;28;20422;-80
2022/07/29 09:19:37;;;;;;;1.10;0.40;;;24.60;1.00;;;;;;5013129;28;20426;-81
2022/07/29 09:22:06;;;;;;;1.23;0.30;;;24.50;6.20;;;;;;5013097;28;20417;-81
2022/07/29 09:24:39;;;;;;;1.90;0.60;;;24.60;4.40;;;;;;5012793;28;20496;-79
2022/07/29 09:27:19;;;;;;;1.67;0.40;;;24.40;1.00;;;;;;5013053;28;20938;-80
2022/07/29 09:29:45;;;;;;;1.27;0.40;;;24.20;10.40;;;;;;5013110;28;20429;-80
2022/07/29 09:32:11;;;;;;;2.10;0.50;;;24.30;16.40;;;;;;5012944;28;20804;-80
2022/07/29 09:34:37;;;;;;;1.73;0.53;;;24.00;22.90;;;;;;5012867;28;20250;-81
2022/07/29 09:37:03;;;;;;;1.20;0.30;;;24.10;32.90;;;;;;5012893;28;20175;-79
2022/07/29 09:39:34;;;;;;;0.70;0.40;;;24.30;8.90;;;;;;5012536;28;20179;-80
2022/07/29 09:42:03;;;;;;;1.20;0.30;;;24.00;1.00;;;;;;5012972;28;20914;-82
2022/07/29 09:44:41;;;;;;;1.17;0.40;;;24.00;15.90;;;;;;4995426;28;20430;-83
2022/07/29 09:47:07;;;;;;;1.57;0.30;;;24.10;49.40;;;;;;5012916;28;20417;-82
2022/07/29 09:49:34;;;;;;;0.97;0.50;;;24.00;43.00;;;;;;5012737;28;20462;-82
2022/07/29 09:52:10;;;;;;;0.90;0.37;;;24.10;91.80;;;;;;5012965;28;20632;-83
2022/07/29 09:54:36;;;;;;;1.57;0.30;;;24.00;59.70;;;;;;5012509;28;20480;-82
2022/07/29 09:57:08;;;;;;;1.80;0.63;;;23.80;79.50;;;;;;5016611;28;20414;-82
2022/07/29 09:59:34;;;;;;;0.90;0.30;;;23.70;61.70;;;;;;5016550;28;20237;-82
2022/07/29 10:02:00;;;;;;;0.67;0.30;;;23.70;26.40;;;;;;4999004;28;20426;-82
2022/07/29 10:04:45;;;;;;;0.83;0.30;;;23.70;58.60;;;;;;5016567;28;20679;-82
2022/07/29 10:07:11;;;;;;;0.77;0.60;;;23.50;99.90;;;;;;5016090;28;20530;-83
2022/07/29 10:09:36;;;;;;;1.40;0.47;;;23.40;45.70;;;;;;5016055;28;20488;-82
2022/07/29 10:12:14;;;;;;;1.33;0.73;;;23.50;53.70;;;;;;5016335;28;20171;-81
2022/07/29 10:14:40;;;;;;;0.80;0.30;;;23.60;32.50;;;;;;5016233;28;20206;-82
2022/07/29 10:17:08;;;;;;;1.40;0.40;;;23.60;47.20;;;;;;5016267;28;20417;-82
2022/07/29 10:19:35;;;;;;;0.80;0.30;;;23.70;45.80;;;;;;5016147;28;20430;-82
2022/07/29 10:22:02;;;;;;;0.83;0.30;;;23.70;20.40;;;;;;5016115;28;20414;-80
2022/07/29 10:24:29;;;;;;;2.30;0.60;;;23.90;35.40;;;;;;5015750;28;20495;-81
2022/07/29 10:26:56;;;;;;;1.13;0.30;;;23.90;23.90;;;;;;5016033;28;20472;-82
2022/07/29 10:29:23;;;;;;;1.37;0.20;;;24.00;25.10;;;;;;5016023;28;20434;-82
2022/07/29 10:32:07;;;;;;;0.80;0.50;;;24.10;10.90;;;;;;5015940;28;20418;-83
2022/07/29 10:34:57;;;;;;;0.70;0.20;;;24.30;1.00;;;;;;5015832;28;20469;-82
2022/07/29 10:37:47;;;;;;;1.13;0.30;;;24.80;12.90;;;;;;5015953;28;20414;-83
2022/07/29 10:43:23;;;;;;;2.93;0.63;;;27.00;1.00;;;;;;5016027;28;20506;-80
2022/07/29 10:45:56;;;;;;;2.10;0.50;;;27.90;1.00;;;;;;5015684;28;20956;-79
2022/07/29 10:48:22;;;;;;;0.70;0.30;;;29.00;1.00;;;;;;5015674;28;20468;-81
2022/07/29 10:50:55;;;;;;;0.50;0.20;;;29.10;1.00;;;;;;5015338;28;20921;-80
2022/07/29 10:53:21;;;;;;;0.80;0.30;;;28.80;1.00;;;;;;5015230;28;20421;-80
2022/07/29 10:55:49;;;;;;;0.73;0.30;;;28.80;1.00;;;;;;5015475;28;21012;-79
2022/07/29 10:58:19;;;;;;;1.93;0.30;;;28.90;1.00;;;;;;5015395;28;20509;-81
2022/07/29 11:00:47;;;;;;;0.93;0.30;;;28.70;1.00;;;;;;5015432;28;20461;-79
2022/07/29 11:03:55;;;;;;;0.80;0.30;;;28.50;1.00;;;;;;5015432;28;20777;-80
2022/07/29 11:06:20;;;;;;;0.70;0.30;;;28.70;1.00;;;;;;5014557;28;20460;-79
2022/07/29 11:09:15;;;;;;;1.17;0.50;;;28.40;1.00;;;;;;5014613;28;20406;-80
2022/07/29 11:11:40;;;;;;;1.80;0.30;;;27.60;1.00;;;;;;5015319;28;20167;-81
2022/07/29 11:14:06;;;;;;;2.07;0.87;;;27.40;1.00;;;;;;5014996;28;20462;-81
2022/07/29 11:16:58;;;;;;;0.80;0.43;;;27.10;1.00;;;;;;5015187;28;20200;-81
2022/07/29 11:19:24;;;;;;;1.90;0.40;;;26.80;1.00;;;;;;5014997;28;20481;-80
2022/07/29 11:21:50;;;;;;;0.47;0.20;;;26.70;1.00;;;;;;5015029;28;20418;-80
2022/07/29 11:24:18;;;;;;;0.60;0.33;;;26.70;1.00;;;;;;5014733;28;20585;-80
2022/07/29 11:26:45;;;;;;;0.80;0.40;;;27.20;1.00;;;;;;5014862;28;20930;-80
2022/07/29 11:29:22;;;;;;;0.60;0.20;;;27.90;1.00;;;;;;5014805;28;20933;-81
2022/07/29 11:31:53;;;;;;;0.80;0.37;;;28.50;1.00;;;;;;5014809;28;20971;-79
2022/07/29 11:34:29;;;;;;;1.10;0.30;;;29.00;1.00;;;;;;5014735;28;20465;-80
2022/07/29 11:37:12;;;;;;;0.40;0.20;;;28.80;1.00;;;;;;5014793;28;20410;-80
2022/07/29 11:39:38;;;;;;;1.63;0.40;;;29.30;1.00;;;;;;5014325;28;20501;-81
2022/07/29 11:42:16;;;;;;;2.10;0.63;;;29.50;1.00;;;;;;5014702;28;20448;-81
2022/07/29 11:45:09;;;;;;;2.10;0.60;;;29.40;1.00;;;;;;5014590;28;20182;-81
2022/07/29 11:47:36;;;;;;;0.60;0.30;;;29.80;1.00;;;;;;5014511;28;20402;-81
2022/07/29 11:50:04;;;;;;;0.70;0.50;;;31.20;1.00;;;;;;5014257;28;20465;-81
2022/07/29 11:52:37;;;;;;;0.90;0.60;;;31.50;1.00;;;;;;5014367;28;20417;-82
2022/07/29 11:55:04;;;;;;;1.23;0.50;;;30.40;1.00;;;;;;5014014;28;20520;-82
2022/07/29 11:57:30;;;;;;;1.20;0.50;;;29.60;1.00;;;;;;5014385;28;20418;-81
2022/07/29 11:59:58;;;;;;;1.47;0.40;;;29.10;1.00;;;;;;5014297;28;20426;-80
2022/07/29 12:02:24;;;;;;;1.13;0.23;;;28.50;1.00;;;;;;5015016;28;20468;-80
2022/07/29 12:04:56;;;;;;;4.27;0.83;;;29.20;1.00;;;;;;5014364;28;20509;-81
2022/07/29 12:07:33;;;;;;;2.23;0.50;;;29.50;1.00;;;;;;5014281;28;20182;-80
2022/07/29 12:09:59;;;;;;;1.13;0.50;;;29.80;1.00;;;;;;5013883;28;20417;-81
2022/07/29 12:12:25;;;;;;;2.53;0.40;;;29.00;1.00;;;;;;5014114;28;20862;-81
2022/07/29 12:14:50;;;;;;;1.10;0.60;;;28.40;1.00;;;;;;5013914;28;20505;-81
2022/07/29 12:17:29;;;;;;;1.50;0.67;;;28.10;1.00;;;;;;5013960;28;20270;-80
2022/07/29 12:19:55;;;;;;;1.13;0.53;;;27.90;1.00;;;;;;5013972;28;20183;-80
2022/07/29 12:22:25;;;;;;;1.00;0.57;;;27.70;1.00;;;;;;5013983;28;20414;-80
2022/07/29 12:24:51;;;;;;;1.03;0.37;;;27.70;1.00;;;;;;5013594;28;20962;-83
2022/07/29 12:27:17;;;;;;;1.33;0.50;;;27.80;1.00;;;;;;4996203;28;20458;-83
2022/07/29 12:29:43;;;;;;;2.30;0.60;;;28.00;1.00;;;;;;5013841;28;20174;-83
2022/07/29 12:32:09;;;;;;;0.47;0.30;;;28.50;1.00;;;;;;5013826;28;20418;-83
2022/07/29 12:34:34;;;;;;;1.47;0.30;;;29.10;1.00;;;;;;5013768;28;20215;-83
2022/07/29 12:37:00;;;;;;;2.47;0.57;;;28.80;1.00;;;;;;5013678;28;20269;-83
2022/07/29 12:39:27;;;;;;;1.27;0.30;;;28.90;1.00;;;;;;5013260;28;20662;-82
2022/07/29 12:41:53;;;;;;;1.07;0.43;;;29.30;1.00;;;;;;5013619;28;20422;-82
2022/07/29 12:44:19;;;;;;;2.40;0.50;;;29.80;1.00;;;;;;5013555;28;20492;-81
2022/07/29 12:46:48;;;;;;;2.00;0.80;;;30.00;1.00;;;;;;5013639;28;20184;-81
2022/07/29 12:49:22;;;;;;;0.83;0.30;;;30.80;1.00;;;;;;5013387;28;20224;-80
2022/07/29 12:51:48;;;;;;;1.40;0.60;;;31.50;1.00;;;;;;5013466;28;20409;-81
2022/07/29 12:54:15;;;;;;;0.83;0.30;;;31.30;1.00;;;;;;5012921;28;20957;-82
2022/07/29 12:56:42;;;;;;;0.60;0.30;;;31.70;1.00;;;;;;5013468;28;20590;-81
2022/07/29 12:59:19;;;;;;;1.50;0.73;;;32.00;1.00;;;;;;5013400;28;20418;-82
2022/07/29 13:01:48;;;;;;;0.70;0.67;;;32.10;1.00;;;;;;5013379;28;20794;-81
2022/07/29 13:04:30;;;;;;;1.03;0.67;;;31.70;1.00;;;;;;5013347;28;20415;-79